Beulah, New Mexico
Current Conditions -  °F | °C
As of 6:53 PM on Saturday 25 Oct 2014 (Local Time) from KLVS Reporting Station
Clear Clear  
Wind Chill: 63°   Ceiling: Unl
Heat Index: 63°   Visibility: 10mi
Dew Point: 23°   Wind: 14mph
Humidity: 22%   Direction: 220°SW
Pressure: 30.23"   Gusts: NA
Location:  35.7797°N, 105.164°W
Report Text: KLVS 260053Z AUTO 22012KT 10SM CLR 17/M05 A3023 RMK AO2 SLP166 T01721050
Loading
Personal Weather Stations






























Interactive Weather Map New forecast layout! Learn more

10-Day Weather Forecast

Advertisements
Track Severe Weather on mobile